Time;durP1;ratioP1;P1;durP2;ratioP2;P2;SDS_P1;SDS_P2;PMS_P1;PMS_P2;Temp;Humidity;BMP_temperature;BMP_pressure;BME280_temperature;BME280_humidity;BME280_pressure;Samples;Min_cycle;Max_cycle;Signal;HPM_P1;HPM_P2
2022/03/10 00:01:56;;;;;;;10.17;7.70;;;4.70;57.00;;;;;;5051231;28;20254;-53
2022/03/10 00:04:22;;;;;;;9.70;7.03;;;4.70;57.00;;;;;;5051325;28;20167;-56
2022/03/10 00:06:47;;;;;;;10.73;7.57;;;4.70;57.20;;;;;;5050956;28;20168;-54
2022/03/10 00:09:13;;;;;;;9.97;7.20;;;4.60;57.10;;;;;;5051248;28;20229;-53
2022/03/10 00:11:40;;;;;;;9.53;7.67;;;4.60;57.50;;;;;;5051013;28;20249;-52
2022/03/10 00:14:05;;;;;;;11.70;7.70;;;4.50;57.40;;;;;;5051236;28;20175;-55
2022/03/10 00:16:31;;;;;;;8.50;7.30;;;4.50;57.50;;;;;;5050980;28;20189;-51
2022/03/10 00:18:56;;;;;;;9.53;7.30;;;4.50;57.60;;;;;;5051157;28;20177;-53
2022/03/10 00:21:22;;;;;;;9.67;7.17;;;4.50;57.60;;;;;;5053727;28;20281;-53
2022/03/10 00:23:47;;;;;;;8.83;6.83;;;4.50;57.50;;;;;;5054539;28;20274;-51
2022/03/10 00:26:13;;;;;;;10.33;7.20;;;4.50;57.70;;;;;;5054464;28;20258;-52
2022/03/10 00:28:38;;;;;;;9.53;6.63;;;4.40;57.80;;;;;;5054516;28;20264;-52
2022/03/10 00:31:04;;;;;;;8.13;6.27;;;4.40;57.80;;;;;;5054700;28;20183;-51
2022/03/10 00:33:30;;;;;;;8.37;6.80;;;5.70;59.00;;;;;;5054610;28;20260;-51
2022/03/10 00:35:55;;;;;;;8.13;6.67;;;4.40;58.00;;;;;;5054210;28;20183;-52
2022/03/10 00:38:21;;;;;;;9.23;6.93;;;4.40;58.00;;;;;;5053131;28;20598;-52
2022/03/10 00:40:46;;;;;;;8.50;6.97;;;4.40;58.20;;;;;;5053014;28;20206;-56
2022/03/10 00:43:13;;;;;;;8.97;7.00;;;4.40;58.10;;;;;;5054257;28;20237;-51
2022/03/10 00:45:39;;;;;;;9.57;6.73;;;4.40;58.10;;;;;;5054099;28;20179;-50
2022/03/10 00:48:04;;;;;;;10.33;7.23;;;4.40;58.20;;;;;;5054189;28;20187;-52
2022/03/10 00:50:30;;;;;;;8.80;6.97;;;4.30;58.10;;;;;;5053083;28;20211;-52
2022/03/10 00:52:56;;;;;;;10.63;7.60;;;4.30;58.10;;;;;;5054011;28;20563;-55
2022/03/10 00:55:22;;;;;;;10.00;7.07;;;4.20;58.80;;;;;;5054163;28;20175;-54
2022/03/10 00:57:49;;;;;;;9.83;7.23;;;4.10;59.20;;;;;;5053867;28;20181;-52
2022/03/10 01:00:15;;;;;;;10.97;7.00;;;4.00;59.20;;;;;;5068505;28;20495;-52
2022/03/10 01:02:41;;;;;;;8.80;6.63;;;4.00;59.30;;;;;;5073944;28;20424;-52
2022/03/10 01:05:08;;;;;;;7.93;6.47;;;4.00;59.70;;;;;;5074092;28;20408;-56
2022/03/10 01:07:34;;;;;;;10.17;6.17;;;3.90;59.90;;;;;;5073421;28;20173;-53
2022/03/10 01:10:00;;;;;;;8.63;6.83;;;3.90;60.30;;;;;;5074052;28;20416;-52
2022/03/10 01:12:25;;;;;;;10.27;6.83;;;3.90;60.30;;;;;;5073812;28;20429;-55
2022/03/10 01:14:52;;;;;;;9.73;7.43;;;3.90;60.20;;;;;;5073803;28;20170;-56
2022/03/10 01:17:17;;;;;;;8.20;6.27;;;4.00;60.30;;;;;;5073500;28;20170;-56
2022/03/10 01:19:43;;;;;;;8.57;6.53;;;3.90;60.30;;;;;;5073714;28;20539;-52
2022/03/10 01:22:08;;;;;;;8.77;6.83;;;3.90;60.50;;;;;;5073483;28;20186;-51
2022/03/10 01:24:34;;;;;;;9.87;7.27;;;3.80;61.00;;;;;;5073684;28;20562;-53
2022/03/10 01:27:00;;;;;;;8.87;6.33;;;3.70;61.50;;;;;;5073247;28;20183;-54
2022/03/10 01:29:25;;;;;;;8.87;6.87;;;3.70;61.70;;;;;;5073460;28;20751;-51
2022/03/10 01:31:51;;;;;;;8.77;6.60;;;3.70;62.00;;;;;;5072974;28;20163;-53
2022/03/10 01:34:16;;;;;;;7.47;5.97;;;3.70;61.90;;;;;;5073499;28;20512;-52
2022/03/10 01:36:42;;;;;;;8.93;6.33;;;3.80;62.10;;;;;;5073036;28;20178;-53
2022/03/10 01:39:08;;;;;;;10.83;6.53;;;3.80;61.90;;;;;;5073288;28;20533;-53
2022/03/10 01:41:35;;;;;;;9.87;7.63;;;3.70;61.80;;;;;;5073209;28;20679;-56
2022/03/10 01:44:06;;;;;;;10.73;7.30;;;3.70;62.20;;;;;;5073031;28;20206;-51
2022/03/10 01:46:32;;;;;;;10.80;7.83;;;3.70;62.30;;;;;;5072966;28;20534;-52
2022/03/10 01:48:58;;;;;;;10.07;7.77;;;3.70;62.70;;;;;;5073106;28;20484;-53
2022/03/10 01:51:24;;;;;;;9.97;7.13;;;3.70;62.60;;;;;;5072973;28;20636;-56
2022/03/10 01:53:51;;;;;;;10.90;7.70;;;3.70;62.70;;;;;;5072969;28;20445;-52
2022/03/10 01:56:18;;;;;;;9.67;7.50;;;3.70;62.70;;;;;;5072733;28;20170;-51
2022/03/10 01:58:49;;;;;;;10.27;7.43;;;3.70;62.60;;;;;;5072929;28;20405;-54
2022/03/10 02:01:16;;;;;;;9.00;6.70;;;3.60;62.60;;;;;;5072804;28;20825;-52
2022/03/10 02:03:42;;;;;;;10.33;6.60;;;3.60;62.60;;;;;;5072824;28;20738;-52
2022/03/10 02:06:09;;;;;;;9.03;6.60;;;3.60;62.60;;;;;;5072515;28;20411;-52
2022/03/10 02:11:20;;;;;;;9.47;6.70;;;3.60;62.60;;;;;;5072752;28;20408;-55
2022/03/10 02:13:46;;;;;;;7.90;6.30;;;3.60;63.10;;;;;;5072614;28;20425;-50
2022/03/10 02:19:00;;;;;;;9.57;7.07;;;3.50;63.50;;;;;;5072578;28;20960;-55
2022/03/10 02:21:26;;;;;;;9.57;6.97;;;3.50;63.80;;;;;;5072421;28;20499;-54
2022/03/10 02:23:52;;;;;;;9.97;7.03;;;3.50;64.20;;;;;;5072303;28;20857;-52
2022/03/10 02:26:18;;;;;;;10.30;7.17;;;3.40;64.20;;;;;;5072039;28;20404;-54
2022/03/10 02:28:44;;;;;;;9.20;7.37;;;3.40;64.30;;;;;;5072353;28;20470;-53
2022/03/10 02:31:10;;;;;;;9.33;7.30;;;3.40;64.30;;;;;;5072351;28;20219;-51
2022/03/10 02:33:35;;;;;;;8.80;6.87;;;3.50;64.60;;;;;;5072215;28;20195;-54
2022/03/10 02:36:02;;;;;;;7.93;6.47;;;3.50;64.70;;;;;;5072145;28;20412;-50
2022/03/10 02:38:28;;;;;;;8.80;6.40;;;3.50;64.70;;;;;;5072172;28;20661;-52
2022/03/10 02:40:54;;;;;;;9.40;7.30;;;3.50;64.80;;;;;;5070899;28;20487;-55
2022/03/10 02:43:20;;;;;;;9.10;6.73;;;3.50;64.70;;;;;;5071412;28;20202;-52
2022/03/10 02:45:46;;;;;;;10.03;7.07;;;3.40;65.20;;;;;;5070322;28;20200;-50
2022/03/10 02:48:16;;;;;;;9.73;6.90;;;3.50;64.70;;;;;;5072085;28;20405;-52
2022/03/10 02:50:43;;;;;;;9.57;6.87;;;3.40;64.90;;;;;;5072153;28;20432;-52
2022/03/10 02:53:10;;;;;;;9.23;6.80;;;3.40;64.90;;;;;;5071815;28;20428;-54
2022/03/10 02:55:36;;;;;;;8.13;6.43;;;3.30;65.20;;;;;;5071677;28;20940;-51
2022/03/10 02:58:02;;;;;;;9.27;6.83;;;3.30;65.30;;;;;;5071898;28;20412;-55
2022/03/10 03:00:28;;;;;;;8.53;6.97;;;3.30;65.50;;;;;;5071835;28;20709;-56
2022/03/10 03:02:54;;;;;;;8.73;6.40;;;3.20;65.90;;;;;;5071823;28;20548;-54
2022/03/10 03:05:20;;;;;;;8.13;6.30;;;3.20;66.20;;;;;;5071950;28;20415;-52
2022/03/10 03:07:48;;;;;;;9.97;6.70;;;3.20;66.20;;;;;;5071617;28;20166;-52
2022/03/10 03:10:14;;;;;;;8.77;6.50;;;3.20;66.30;;;;;;5071804;28;20267;-52
2022/03/10 03:12:47;;;;;;;8.50;6.47;;;3.20;66.20;;;;;;5071736;28;20470;-52
2022/03/10 03:15:14;;;;;;;8.43;6.73;;;3.20;66.70;;;;;;5072287;28;20420;-53
2022/03/10 03:17:39;;;;;;;7.70;5.80;;;3.10;67.00;;;;;;5091534;28;20415;-53
2022/03/10 03:20:06;;;;;;;8.37;6.20;;;3.00;67.30;;;;;;5091581;28;20459;-55
2022/03/10 03:22:32;;;;;;;8.23;5.77;;;3.00;67.90;;;;;;5091846;28;20238;-51
2022/03/10 03:24:57;;;;;;;8.00;6.30;;;2.90;68.50;;;;;;5091924;28;20411;-55
2022/03/10 03:27:23;;;;;;;8.03;6.40;;;2.90;68.60;;;;;;5091502;28;20170;-52
2022/03/10 03:29:49;;;;;;;9.40;6.80;;;2.90;68.60;;;;;;5091983;28;20656;-52
2022/03/10 03:32:14;;;;;;;8.57;6.70;;;2.90;68.60;;;;;;5091781;28;20200;-51
2022/03/10 03:34:40;;;;;;;9.30;6.07;;;2.80;69.10;;;;;;5091835;28;20751;-50
2022/03/10 03:37:05;;;;;;;8.73;6.27;;;2.80;69.40;;;;;;5091418;28;20665;-52
2022/03/10 03:39:31;;;;;;;8.60;6.53;;;2.80;69.10;;;;;;5091562;28;20212;-51
2022/03/10 03:41:57;;;;;;;7.60;6.10;;;2.90;68.70;;;;;;5091484;28;20193;-56
2022/03/10 03:44:23;;;;;;;9.43;6.57;;;3.00;68.50;;;;;;5091822;28;20278;-56
2022/03/10 03:46:48;;;;;;;8.67;6.60;;;3.10;67.90;;;;;;5091431;28;20859;-51
2022/03/10 03:49:14;;;;;;;9.57;7.03;;;3.00;67.30;;;;;;5090402;28;20223;-51
2022/03/10 03:51:39;;;;;;;9.80;7.03;;;3.00;67.50;;;;;;5091546;28;20520;-53
2022/03/10 03:54:07;;;;;;;8.57;6.60;;;3.00;67.60;;;;;;5091640;28;20184;-53
2022/03/10 03:56:37;;;;;;;9.23;7.03;;;3.00;68.20;;;;;;5094434;28;20189;-52
2022/03/10 03:59:03;;;;;;;10.70;6.30;;;2.90;68.20;;;;;;5095638;28;20443;-51
2022/03/10 04:01:29;;;;;;;9.77;6.23;;;2.90;68.10;;;;;;5095441;28;21016;-52
2022/03/10 04:03:54;;;;;;;7.40;5.90;;;2.90;67.90;;;;;;5095419;28;20427;-56
2022/03/10 04:06:20;;;;;;;7.93;6.33;;;2.90;68.00;;;;;;5095607;28;20259;-54
2022/03/10 04:08:45;;;;;;;7.23;6.37;;;2.90;68.40;;;;;;5095271;28;20166;-53
2022/03/10 04:11:11;;;;;;;8.57;6.63;;;2.80;68.30;;;;;;5095142;28;20583;-52
2022/03/10 04:13:37;;;;;;;7.80;6.10;;;2.90;68.90;;;;;;5095293;28;20194;-57
2022/03/10 04:16:03;;;;;;;9.77;6.90;;;2.80;68.60;;;;;;5094938;28;20411;-58
2022/03/10 04:18:29;;;;;;;8.57;6.60;;;2.80;69.20;;;;;;5095177;28;20197;-51
2022/03/10 04:20:58;;;;;;;6.70;5.20;;;2.90;69.40;;;;;;5094960;28;20205;-52
2022/03/10 04:23:24;;;;;;;9.27;6.37;;;2.80;70.50;;;;;;5094975;28;20450;-55
2022/03/10 04:25:50;;;;;;;9.47;6.23;;;2.80;70.20;;;;;;5094707;28;20919;-53
2022/03/10 04:28:15;;;;;;;9.67;6.40;;;2.80;70.70;;;;;;5094935;28;20180;-54
2022/03/10 04:30:41;;;;;;;10.03;6.70;;;2.80;70.60;;;;;;5094869;28;20324;-52
2022/03/10 04:33:06;;;;;;;9.03;6.43;;;2.80;70.30;;;;;;5094872;28;20196;-50
2022/03/10 04:35:32;;;;;;;8.53;5.80;;;2.80;70.00;;;;;;5094558;28;20174;-53
2022/03/10 04:37:57;;;;;;;8.33;6.37;;;2.80;70.30;;;;;;5094694;28;20185;-51
2022/03/10 04:40:23;;;;;;;9.17;6.70;;;2.90;70.70;;;;;;5094692;28;20212;-54
2022/03/10 04:42:50;;;;;;;9.43;6.97;;;2.90;70.40;;;;;;5210096;22;20213;-55
2022/03/10 04:45:16;;;;;;;10.87;8.17;;;2.80;70.30;;;;;;5022116;28;20193;-61
2022/03/10 04:47:42;;;;;;;10.20;8.80;;;2.90;70.00;;;;;;5018148;28;20772;-61
2022/03/10 04:50:09;;;;;;;9.20;7.33;;;2.90;70.10;;;;;;5034579;28;20184;-59
2022/03/10 04:52:35;;;;;;;9.93;7.37;;;2.90;70.10;;;;;;5029961;28;20404;-58
2022/03/10 04:55:01;;;;;;;9.00;7.07;;;2.80;69.80;;;;;;5014494;28;20465;-58
2022/03/10 04:57:26;;;;;;;9.40;7.33;;;2.80;69.80;;;;;;5014290;28;20172;-58
2022/03/10 04:59:52;;;;;;;10.90;8.50;;;2.80;69.90;;;;;;5014627;28;20205;-58
2022/03/10 05:02:17;;;;;;;11.50;8.53;;;2.70;70.00;;;;;;5015734;28;20181;-57
2022/03/10 05:04:43;;;;;;;13.13;9.67;;;2.70;70.30;;;;;;5014931;28;20658;-58
2022/03/10 05:07:09;;;;;;;14.03;10.93;;;2.70;70.60;;;;;;5013795;28;20243;-58
2022/03/10 05:09:34;;;;;;;13.47;10.80;;;2.70;70.70;;;;;;5014622;28;20173;-58
2022/03/10 05:12:00;;;;;;;12.23;9.97;;;2.70;71.00;;;;;;5014405;28;20478;-56
2022/03/10 05:14:26;;;;;;;10.13;8.17;;;2.60;71.30;;;;;;5014369;28;20667;-56
2022/03/10 05:16:52;;;;;;;12.07;9.33;;;2.60;71.80;;;;;;5013996;28;20238;-58
2022/03/10 05:19:18;;;;;;;16.17;11.60;;;2.60;72.20;;;;;;5015011;28;20184;-59
2022/03/10 05:21:43;;;;;;;15.83;11.37;;;2.60;72.40;;;;;;5014262;28;20220;-59
2022/03/10 05:24:09;;;;;;;14.47;10.90;;;2.60;72.20;;;;;;5013869;28;20220;-59
2022/03/10 05:26:37;;;;;;;11.80;9.70;;;2.70;72.10;;;;;;5013691;28;20175;-56
2022/03/10 05:29:03;;;;;;;10.80;8.80;;;2.60;72.60;;;;;;5013973;28;20708;-54
2022/03/10 05:31:28;;;;;;;11.07;8.03;;;2.50;73.00;;;;;;5013812;28;20419;-55
2022/03/10 05:33:54;;;;;;;10.00;7.93;;;2.40;73.80;;;;;;5013806;28;20235;-57
2022/03/10 05:36:20;;;;;;;11.27;8.00;;;2.30;74.70;;;;;;5013546;28;20184;-57
2022/03/10 05:38:45;;;;;;;9.73;7.37;;;2.20;75.80;;;;;;5013693;28;20246;-55
2022/03/10 05:41:11;;;;;;;10.00;7.43;;;2.20;76.50;;;;;;5013580;28;20207;-58
2022/03/10 05:43:36;;;;;;;12.70;8.00;;;2.20;76.70;;;;;;5013400;28;20429;-60
2022/03/10 05:46:02;;;;;;;9.00;7.13;;;2.20;77.10;;;;;;5013248;28;20180;-55
2022/03/10 05:48:28;;;;;;;11.33;7.43;;;2.20;78.00;;;;;;5013400;28;20235;-59
2022/03/10 05:50:53;;;;;;;9.93;7.17;;;2.10;79.10;;;;;;5013508;28;20184;-58
2022/03/10 05:53:19;;;;;;;11.13;6.83;;;2.20;80.20;;;;;;5030892;28;20199;-55
2022/03/10 05:55:45;;;;;;;10.57;7.70;;;2.20;81.10;;;;;;5032728;28;20653;-58
2022/03/10 05:58:11;;;;;;;10.43;7.23;;;2.30;80.30;;;;;;5032849;28;20171;-56
2022/03/10 06:00:37;;;;;;;11.53;8.50;;;2.40;80.50;;;;;;5032981;28;20827;-54
2022/03/10 06:03:03;;;;;;;12.33;8.93;;;2.50;80.20;;;;;;5032910;28;20190;-55
2022/03/10 06:05:28;;;;;;;13.33;9.27;;;2.50;79.80;;;;;;5032820;28;20403;-57
2022/03/10 06:07:54;;;;;;;11.93;8.80;;;2.60;79.50;;;;;;5032718;28;20164;-55
2022/03/10 06:10:20;;;;;;;11.20;8.47;;;2.60;79.10;;;;;;5032880;28;20179;-56
2022/03/10 06:12:46;;;;;;;10.93;7.63;;;2.70;78.70;;;;;;5032644;28;20430;-58
2022/03/10 06:15:11;;;;;;;11.00;7.40;;;2.80;78.50;;;;;;5032872;28;20168;-53
2022/03/10 06:17:37;;;;;;;9.33;7.40;;;2.80;78.60;;;;;;5032501;28;20183;-58
2022/03/10 06:20:04;;;;;;;9.90;7.03;;;2.80;78.10;;;;;;5032810;28;20205;-60
2022/03/10 06:22:31;;;;;;;10.77;7.63;;;2.90;78.00;;;;;;5032592;28;20164;-58
2022/03/10 06:24:58;;;;;;;9.63;7.50;;;2.90;77.70;;;;;;5032606;28;20422;-58
2022/03/10 06:27:24;;;;;;;8.67;6.97;;;2.90;77.90;;;;;;5032434;28;20410;-57
2022/03/10 06:29:50;;;;;;;11.93;7.40;;;3.00;78.00;;;;;;5032588;28;20406;-60
2022/03/10 06:32:17;;;;;;;9.67;7.50;;;3.00;77.90;;;;;;5032744;28;20182;-58
2022/03/10 06:34:43;;;;;;;10.23;7.27;;;3.00;78.00;;;;;;5032617;28;20427;-58
2022/03/10 06:37:09;;;;;;;8.80;7.10;;;3.10;77.70;;;;;;5032673;28;20508;-59
2022/03/10 06:39:35;;;;;;;8.83;7.17;;;3.20;78.20;;;;;;5032589;28;20979;-57
2022/03/10 06:42:02;;;;;;;10.13;7.27;;;3.30;77.40;;;;;;5032469;28;20176;-57
2022/03/10 06:44:29;;;;;;;10.63;7.33;;;3.40;76.90;;;;;;5032358;28;20524;-56
2022/03/10 06:46:55;;;;;;;8.53;7.13;;;3.50;76.40;;;;;;5032160;28;20771;-58
2022/03/10 06:49:21;;;;;;;10.73;7.20;;;3.50;76.20;;;;;;5032170;28;20411;-59
2022/03/10 06:51:47;;;;;;;10.80;7.70;;;3.60;76.00;;;;;;5032263;28;20226;-57
2022/03/10 06:54:13;;;;;;;8.20;6.87;;;3.80;76.00;;;;;;5032017;28;20434;-59
2022/03/10 06:56:39;;;;;;;12.03;9.00;;;3.80;75.70;;;;;;5032052;28;20449;-56
2022/03/10 06:59:05;;;;;;;9.10;7.20;;;3.90;75.10;;;;;;5032121;28;20439;-55
2022/03/10 07:01:31;;;;;;;10.20;7.30;;;3.80;76.10;;;;;;5019930;28;20212;-60
2022/03/10 07:03:57;;;;;;;9.80;8.20;;;3.80;76.50;;;;;;5012230;28;20435;-59
2022/03/10 07:06:23;;;;;;;8.90;6.87;;;3.90;77.30;;;;;;5012021;28;20177;-58
2022/03/10 07:08:49;;;;;;;10.43;7.83;;;4.00;77.40;;;;;;5012196;28;20407;-60
2022/03/10 07:11:15;;;;;;;10.07;7.47;;;4.20;77.00;;;;;;5012248;28;20781;-57
2022/03/10 07:13:40;;;;;;;8.93;7.20;;;4.40;76.10;;;;;;5012196;28;20197;-56
2022/03/10 07:16:06;;;;;;;8.87;7.70;;;4.50;75.50;;;;;;5011978;28;20599;-58
2022/03/10 07:18:31;;;;;;;11.47;7.73;;;4.60;75.10;;;;;;5012104;28;20256;-58
2022/03/10 07:20:57;;;;;;;10.37;7.53;;;4.70;74.90;;;;;;5012099;28;20255;-58
2022/03/10 07:23:23;;;;;;;10.83;7.40;;;4.90;74.70;;;;;;5012005;28;20738;-59
2022/03/10 07:25:48;;;;;;;10.37;7.50;;;5.10;73.80;;;;;;5011896;28;20169;-58
2022/03/10 07:28:14;;;;;;;9.70;8.20;;;5.20;73.60;;;;;;5012030;28;20169;-58
2022/03/10 07:30:39;;;;;;;8.83;7.47;;;5.30;72.40;;;;;;5013789;28;20272;-58
2022/03/10 07:33:05;;;;;;;11.53;8.70;;;5.40;71.80;;;;;;5016137;28;20196;-60
2022/03/10 07:35:30;;;;;;;11.90;9.80;;;5.40;73.10;;;;;;5016032;28;20180;-58
2022/03/10 07:37:59;;;;;;;12.30;9.23;;;5.50;73.00;;;;;;5015544;28;20196;-58
2022/03/10 07:40:25;;;;;;;12.93;9.70;;;5.60;72.40;;;;;;5014815;28;20669;-58
2022/03/10 07:42:51;;;;;;;13.00;10.50;;;5.70;71.10;;;;;;5014257;28;20190;-60
2022/03/10 07:45:17;;;;;;;12.27;9.67;;;5.90;70.60;;;;;;5015581;28;20810;-54
2022/03/10 07:47:42;;;;;;;11.57;9.13;;;6.00;70.60;;;;;;5015606;28;20168;-58
2022/03/10 07:50:09;;;;;;;10.97;8.57;;;6.20;70.10;;;;;;5015887;28;20764;-59
2022/03/10 07:52:34;;;;;;;9.37;8.00;;;6.40;69.00;;;;;;5015856;28;20215;-60
2022/03/10 07:55:00;;;;;;;9.90;7.70;;;6.60;68.70;;;;;;5015777;28;20184;-61
2022/03/10 07:57:25;;;;;;;10.07;8.27;;;6.80;68.80;;;;;;5015480;28;20183;-58
2022/03/10 07:59:52;;;;;;;9.27;7.50;;;6.90;68.50;;;;;;5015793;28;20173;-60
2022/03/10 08:02:17;;;;;;;9.20;7.53;;;7.00;67.90;;;;;;5015627;28;20251;-58
2022/03/10 08:04:43;;;;;;;10.13;8.13;;;7.30;67.70;;;;;;5015580;28;20291;-58
2022/03/10 08:07:09;;;;;;;9.67;7.47;;;7.50;65.80;;;;;;5015189;28;20235;-56
2022/03/10 08:09:34;;;;;;;8.73;7.67;;;7.60;64.40;;;;;;5015425;28;20173;-58
2022/03/10 08:12:00;;;;;;;10.57;7.27;;;7.70;64.70;;;;;;5015588;28;20642;-54
2022/03/10 08:14:26;;;;;;;9.60;8.17;;;7.80;64.50;;;;;;5015421;28;20200;-54
2022/03/10 08:16:52;;;;;;;9.77;8.03;;;8.00;64.30;;;;;;5014848;28;20737;-60
2022/03/10 08:19:17;;;;;;;10.60;7.50;;;8.20;63.70;;;;;;5015315;28;20238;-57
2022/03/10 08:21:43;;;;;;;9.57;7.60;;;8.40;62.80;;;;;;5015245;28;20196;-56
2022/03/10 08:24:09;;;;;;;8.57;7.10;;;8.60;62.40;;;;;;5015236;28;20215;-55
2022/03/10 08:26:35;;;;;;;8.77;7.40;;;8.80;62.00;;;;;;5014868;28;20169;-56
2022/03/10 08:29:00;;;;;;;9.90;7.80;;;9.00;60.90;;;;;;5015072;28;20165;-57
2022/03/10 08:31:26;;;;;;;9.23;7.40;;;9.20;60.80;;;;;;5014910;28;20587;-53
2022/03/10 08:33:51;;;;;;;8.67;7.53;;;9.40;60.00;;;;;;5014036;28;20200;-58
2022/03/10 08:36:17;;;;;;;9.13;7.37;;;9.60;59.90;;;;;;5014594;28;20660;-56
2022/03/10 08:38:43;;;;;;;10.30;7.73;;;9.80;59.60;;;;;;5014201;28;20169;-55
2022/03/10 08:41:09;;;;;;;8.90;7.53;;;10.00;57.70;;;;;;5013005;28;20204;-54
2022/03/10 08:43:34;;;;;;;9.50;7.47;;;10.20;57.20;;;;;;5012643;28;20215;-56
2022/03/10 08:46:03;;;;;;;7.90;6.90;;;10.30;55.90;;;;;;5013252;28;20184;-55
2022/03/10 08:48:31;;;;;;;8.43;7.03;;;10.30;56.10;;;;;;5014772;28;20314;-55
2022/03/10 08:50:58;;;;;;;9.00;7.30;;;10.40;56.00;;;;;;5014709;28;20173;-56
2022/03/10 08:53:24;;;;;;;9.20;7.53;;;10.60;54.90;;;;;;5014540;28;20216;-57
2022/03/10 08:55:49;;;;;;;9.40;7.37;;;10.80;54.80;;;;;;5014398;28;20208;-56
2022/03/10 08:58:15;;;;;;;10.90;7.47;;;10.70;53.30;;;;;;5014662;28;20173;-55
2022/03/10 09:00:43;;;;;;;8.60;7.40;;;10.70;53.80;;;;;;4997028;28;20215;-58
2022/03/10 09:03:08;;;;;;;7.80;6.67;;;10.70;53.60;;;;;;5014406;28;20275;-59
2022/03/10 09:05:36;;;;;;;9.63;7.20;;;11.00;53.20;;;;;;5014187;28;20714;-55
2022/03/10 09:08:01;;;;;;;8.33;7.10;;;11.10;52.10;;;;;;5014425;28;20165;-55
2022/03/10 09:10:27;;;;;;;8.67;7.17;;;11.00;52.40;;;;;;5014287;28;20680;-58
2022/03/10 09:12:53;;;;;;;8.40;6.60;;;11.10;51.90;;;;;;5014438;28;20693;-59
2022/03/10 09:15:19;;;;;;;10.17;6.93;;;11.30;50.90;;;;;;5014217;28;20653;-58
2022/03/10 09:17:45;;;;;;;8.30;6.50;;;11.20;51.50;;;;;;5014948;28;20207;-55
2022/03/10 09:20:13;;;;;;;8.60;6.87;;;11.40;51.40;;;;;;5014139;28;20201;-55
2022/03/10 09:22:39;;;;;;;7.93;6.87;;;11.90;50.40;;;;;;5014023;28;20658;-54
2022/03/10 09:25:08;;;;;;;8.13;6.67;;;12.50;49.60;;;;;;5014107;28;20574;-58
2022/03/10 09:27:35;;;;;;;7.40;6.70;;;13.10;48.80;;;;;;5013799;28;20174;-59
2022/03/10 09:30:02;;;;;;;7.97;6.67;;;13.70;46.00;;;;;;5014043;28;20218;-58
2022/03/10 09:32:36;;;;;;;7.13;6.43;;;14.20;44.60;;;;;;5014256;28;20664;-53
2022/03/10 09:35:06;;;;;;;7.47;5.93;;;14.70;43.60;;;;;;5013962;28;20171;-56
2022/03/10 09:37:32;;;;;;;6.87;6.17;;;16.00;43.10;;;;;;5013414;28;20638;-58
2022/03/10 09:39:58;;;;;;;7.13;6.23;;;17.50;40.50;;;;;;5013729;28;20187;-54
2022/03/10 09:42:27;;;;;;;5.93;5.33;;;19.20;37.60;;;;;;5013979;28;20208;-59
2022/03/10 09:44:53;;;;;;;6.43;5.60;;;20.60;34.40;;;;;;5013577;28;20701;-60
2022/03/10 09:47:19;;;;;;;6.30;5.28;;;22.10;32.80;;;;;;5013405;28;20251;-60
2022/03/10 09:49:46;;;;;;;6.07;5.50;;;23.70;31.10;;;;;;5013625;28;20654;-58
2022/03/10 09:52:13;;;;;;;5.80;5.22;;;25.40;27.60;;;;;;5013718;28;20165;-59
2022/03/10 09:54:39;;;;;;;5.47;4.97;;;26.00;26.00;;;;;;5013282;28;20193;-55
2022/03/10 09:57:07;;;;;;;5.70;5.15;;;25.00;26.30;;;;;;5013401;28;20180;-56
2022/03/10 09:59:32;;;;;;;5.30;4.80;;;25.50;26.30;;;;;;5013451;28;20173;-59
2022/03/10 10:01:58;;;;;;;5.20;4.70;;;27.10;24.50;;;;;;5013314;28;20210;-56
2022/03/10 10:04:24;;;;;;;4.63;4.22;;;27.70;24.80;;;;;;5013474;28;20229;-59
2022/03/10 10:06:59;;;;;;;5.05;4.53;;;29.60;23.40;;;;;;5013297;28;20180;-58
2022/03/10 10:09:45;;;;;;;5.20;4.70;;;32.00;22.40;;;;;;5013367;28;20176;-55
2022/03/10 10:12:12;;;;;;;5.20;4.65;;;34.30;21.00;;;;;;5013255;28;20694;-62
2022/03/10 10:14:41;;;;;;;4.93;4.53;;;36.00;19.00;;;;;;5013329;28;20197;-56
2022/03/10 10:17:07;;;;;;;4.40;4.00;;;35.50;18.20;;;;;;5013042;28;20195;-61
2022/03/10 10:19:34;;;;;;;5.30;4.85;;;35.30;19.50;;;;;;5013160;28;20168;-59
2022/03/10 10:22:16;;;;;;;5.10;4.60;;;36.60;18.70;;;;;;5012965;28;20287;-59
2022/03/10 10:24:59;;;;;;;5.60;5.07;;;38.20;17.60;;;;;;5013198;28;20183;-58
2022/03/10 10:27:27;;;;;;;5.07;4.57;;;38.50;16.70;;;;;;5013064;28;20164;-59
2022/03/10 10:29:55;;;;;;;4.65;4.22;;;37.90;16.90;;;;;;5013393;28;20569;-59
2022/03/10 10:32:53;;;;;;;5.57;4.20;;;38.20;16.40;;;;;;5012874;28;20180;-60
2022/03/10 10:35:22;;;;;;;6.07;4.95;;;39.30;16.60;;;;;;4991025;28;20188;-60
2022/03/10 10:37:51;;;;;;;5.70;5.15;;;39.70;15.40;;;;;;5012849;28;20204;-61
2022/03/10 10:40:22;;;;;;;8.70;6.38;;;38.40;15.80;;;;;;5013573;28;20303;-59
2022/03/10 10:45:31;;;;;;;4.47;3.70;;;38.20;15.90;;;;;;5136301;22;20230;-59
2022/03/10 10:48:03;;;;;;;3.85;3.55;;;39.70;16.20;;;;;;5066608;28;20204;-58
2022/03/10 10:50:34;;;;;;;4.00;3.70;;;41.80;15.20;;;;;;5071871;28;20202;-57
2022/03/10 10:52:59;;;;;;;3.72;3.42;;;42.30;14.30;;;;;;5071933;28;20186;-54
2022/03/10 10:55:45;;;;;;;3.45;3.15;;;43.10;13.70;;;;;;5071806;28;20174;-55
2022/03/10 10:58:14;;;;;;;3.80;3.50;;;44.50;12.70;;;;;;5072031;28;20174;-56
2022/03/10 11:00:46;;;;;;;4.50;4.10;;;44.80;12.40;;;;;;5072014;28;20194;-55
2022/03/10 11:03:31;;;;;;;3.70;3.40;;;45.00;11.60;;;;;;5071763;28;20177;-57
2022/03/10 11:05:57;;;;;;;4.03;3.63;;;45.50;11.40;;;;;;5070860;28;20170;-57
2022/03/10 11:08:25;;;;;;;3.58;3.28;;;44.90;11.40;;;;;;5072001;28;20178;-56
2022/03/10 11:10:52;;;;;;;3.95;3.55;;;42.30;12.30;;;;;;5071843;28;20198;-57
2022/03/10 11:13:18;;;;;;;4.57;3.63;;;39.80;13.10;;;;;;5071727;28;20186;-55
2022/03/10 11:15:45;;;;;;;6.60;5.57;;;38.80;14.30;;;;;;5071693;28;20170;-57
2022/03/10 11:18:12;;;;;;;3.90;3.60;;;39.70;13.70;;;;;;5071688;28;20166;-57
2022/03/10 11:20:40;;;;;;;3.97;3.67;;;39.70;13.20;;;;;;5071311;28;20280;-56
2022/03/10 11:23:11;;;;;;;3.65;3.30;;;39.80;13.30;;;;;;5071713;28;20181;-59
2022/03/10 11:26:03;;;;;;;4.05;3.22;;;41.00;13.10;;;;;;5071484;28;20178;-56
2022/03/10 11:28:30;;;;;;;5.00;4.50;;;42.30;13.00;;;;;;5071851;28;20235;-59
2022/03/10 11:31:00;;;;;;;3.70;3.40;;;41.70;12.60;;;;;;5071732;28;20208;-55
2022/03/10 11:33:36;;;;;;;4.00;3.60;;;41.40;12.50;;;;;;5071976;28;20697;-59
2022/03/10 11:36:25;;;;;;;4.95;3.55;;;40.60;12.90;;;;;;5070333;28;20173;-60
2022/03/10 11:38:54;;;;;;;3.58;3.28;;;40.10;13.70;;;;;;5072014;28;20173;-60
2022/03/10 11:41:24;;;;;;;3.40;3.10;;;40.90;13.30;;;;;;5071706;28;20582;-60
2022/03/10 11:44:02;;;;;;;3.47;3.17;;;41.90;14.00;;;;;;5071703;28;20213;-60
2022/03/10 11:46:29;;;;;;;3.08;2.88;;;43.20;13.10;;;;;;5071472;28;20173;-58
2022/03/10 11:49:15;;;;;;;3.10;2.90;;;44.00;12.40;;;;;;5071754;28;20535;-60
2022/03/10 11:51:52;;;;;;;4.03;3.10;;;43.60;12.20;;;;;;5071781;28;20186;-56
2022/03/10 11:54:18;;;;;;;3.08;2.80;;;43.60;12.30;;;;;;5071272;28;20273;-59
2022/03/10 11:56:43;;;;;;;3.78;3.47;;;43.60;12.20;;;;;;5071396;28;20193;-60
2022/03/10 11:59:27;;;;;;;3.08;2.83;;;43.70;12.50;;;;;;5071672;28;20170;-60
2022/03/10 12:01:54;;;;;;;3.63;3.30;;;43.60;12.20;;;;;;5071728;28;20194;-57
2022/03/10 12:04:21;;;;;;;3.08;2.88;;;44.00;12.40;;;;;;5071559;28;20377;-58
2022/03/10 12:06:56;;;;;;;2.50;2.40;;;44.40;12.60;;;;;;5071911;28;20163;-56
2022/03/10 12:09:33;;;;;;;3.20;3.00;;;45.10;12.40;;;;;;5072378;28;20173;-59
2022/03/10 12:12:20;;;;;;;2.92;2.63;;;45.60;12.00;;;;;;5071679;28;20224;-59
2022/03/10 12:14:46;;;;;;;2.70;2.50;;;44.90;12.10;;;;;;5071409;28;20666;-60
2022/03/10 12:17:42;;;;;;;2.83;2.60;;;44.10;12.20;;;;;;5073844;28;20178;-61
2022/03/10 12:20:24;;;;;;;3.10;2.80;;;43.30;12.70;;;;;;5075430;28;20252;-60
2022/03/10 12:23:02;;;;;;;2.50;2.30;;;42.80;13.00;;;;;;5075661;28;20665;-60
2022/03/10 12:25:29;;;;;;;2.67;2.47;;;41.70;13.50;;;;;;5075784;28;20223;-60
2022/03/10 12:27:56;;;;;;;2.60;2.40;;;41.00;13.50;;;;;;5075466;28;20657;-60
2022/03/10 12:30:26;;;;;;;2.50;2.30;;;41.00;13.90;;;;;;5075859;28;20527;-60
2022/03/10 12:32:53;;;;;;;2.50;2.30;;;40.10;13.90;;;;;;5075564;28;20170;-57
2022/03/10 12:35:22;;;;;;;2.47;2.28;;;37.50;15.00;;;;;;5075657;28;20190;-60
2022/03/10 12:37:48;;;;;;;2.97;2.30;;;36.70;15.40;;;;;;5075143;28;20166;-60
2022/03/10 12:40:19;;;;;;;2.65;2.42;;;35.60;16.20;;;;;;5075387;28;20649;-58
2022/03/10 12:42:48;;;;;;;2.80;2.53;;;35.30;17.60;;;;;;5075084;28;20256;-59
2022/03/10 12:45:19;;;;;;;2.70;2.50;;;35.70;17.20;;;;;;5075160;28;20213;-60
2022/03/10 12:47:49;;;;;;;2.40;2.20;;;34.70;17.00;;;;;;5075277;28;20175;-60
2022/03/10 12:50:15;;;;;;;2.40;2.30;;;34.90;17.20;;;;;;5075809;28;20558;-59
2022/03/10 12:52:41;;;;;;;2.70;2.50;;;34.50;16.50;;;;;;5075241;28;20177;-60
2022/03/10 12:55:10;;;;;;;2.65;2.45;;;34.50;17.10;;;;;;5075875;28;20190;-60
2022/03/10 12:57:39;;;;;;;2.70;2.50;;;34.80;16.50;;;;;;5075968;28;20162;-60
2022/03/10 13:00:19;;;;;;;2.40;2.30;;;35.20;15.90;;;;;;5076212;28;20669;-60